sensor_id;sensor_type;location;lat;lon;timestamp;P1;durP1;ratioP1;P2;durP2;ratioP2
42702;SDS011;28341;52.064;4.920;2024-02-28T00:00:34;18.20;;;14.10;;
42702;SDS011;28341;52.064;4.920;2024-02-28T00:02:39;21.05;;;15.60;;
42702;SDS011;28341;52.064;4.920;2024-02-28T00:04:43;21.08;;;15.70;;
42702;SDS011;28341;52.064;4.920;2024-02-28T00:06:47;22.27;;;15.05;;
42702;SDS011;28341;52.064;4.920;2024-02-28T00:08:52;21.42;;;15.75;;
42702;SDS011;28341;52.064;4.920;2024-02-28T00:10:56;23.42;;;16.90;;
42702;SDS011;28341;52.064;4.920;2024-02-28T00:13:00;19.92;;;16.27;;
42702;SDS011;28341;52.064;4.920;2024-02-28T00:15:05;23.42;;;16.25;;
42702;SDS011;28341;52.064;4.920;2024-02-28T00:17:14;21.08;;;16.15;;
42702;SDS011;28341;52.064;4.920;2024-02-28T00:19:19;20.60;;;15.75;;
42702;SDS011;28341;52.064;4.920;2024-02-28T00:21:25;21.58;;;17.05;;
42702;SDS011;28341;52.064;4.920;2024-02-28T00:23:27;20.88;;;16.73;;
42702;SDS011;28341;52.064;4.920;2024-02-28T00:25:32;20.38;;;16.45;;
42702;SDS011;28341;52.064;4.920;2024-02-28T00:27:37;21.90;;;16.55;;
42702;SDS011;28341;52.064;4.920;2024-02-28T00:29:41;25.30;;;16.38;;
42702;SDS011;28341;52.064;4.920;2024-02-28T00:31:47;19.05;;;15.93;;
42702;SDS011;28341;52.064;4.920;2024-02-28T00:33:54;21.35;;;16.75;;
42702;SDS011;28341;52.064;4.920;2024-02-28T00:35:59;21.50;;;15.98;;
42702;SDS011;28341;52.064;4.920;2024-02-28T00:38:03;25.20;;;16.45;;
42702;SDS011;28341;52.064;4.920;2024-02-28T00:40:08;21.10;;;16.20;;
42702;SDS011;28341;52.064;4.920;2024-02-28T00:42:14;23.75;;;17.05;;
42702;SDS011;28341;52.064;4.920;2024-02-28T00:44:18;22.88;;;17.67;;
42702;SDS011;28341;52.064;4.920;2024-02-28T00:46:20;22.17;;;17.75;;
42702;SDS011;28341;52.064;4.920;2024-02-28T00:48:25;23.58;;;17.67;;
42702;SDS011;28341;52.064;4.920;2024-02-28T00:50:32;25.35;;;18.88;;
42702;SDS011;28341;52.064;4.920;2024-02-28T00:52:37;23.08;;;17.50;;
42702;SDS011;28341;52.064;4.920;2024-02-28T00:54:41;23.27;;;17.13;;
42702;SDS011;28341;52.064;4.920;2024-02-28T00:56:45;25.15;;;18.48;;
42702;SDS011;28341;52.064;4.920;2024-02-28T00:58:50;21.08;;;17.42;;
42702;SDS011;28341;52.064;4.920;2024-02-28T01:00:52;27.20;;;18.25;;
42702;SDS011;28341;52.064;4.920;2024-02-28T01:02:56;26.80;;;19.02;;
42702;SDS011;28341;52.064;4.920;2024-02-28T01:05:04;21.63;;;17.63;;
42702;SDS011;28341;52.064;4.920;2024-02-28T01:07:12;23.35;;;17.65;;
42702;SDS011;28341;52.064;4.920;2024-02-28T01:09:13;24.60;;;17.85;;
42702;SDS011;28341;52.064;4.920;2024-02-28T01:11:18;21.60;;;16.98;;
42702;SDS011;28341;52.064;4.920;2024-02-28T01:13:22;22.58;;;17.45;;
42702;SDS011;28341;52.064;4.920;2024-02-28T01:15:24;22.00;;;17.25;;
42702;SDS011;28341;52.064;4.920;2024-02-28T01:17:28;22.02;;;17.45;;
42702;SDS011;28341;52.064;4.920;2024-02-28T01:19:33;20.38;;;17.10;;
42702;SDS011;28341;52.064;4.920;2024-02-28T01:21:38;25.10;;;17.95;;
42702;SDS011;28341;52.064;4.920;2024-02-28T01:23:45;22.38;;;17.77;;
42702;SDS011;28341;52.064;4.920;2024-02-28T01:25:47;22.85;;;17.08;;
42702;SDS011;28341;52.064;4.920;2024-02-28T01:27:51;24.23;;;17.80;;
42702;SDS011;28341;52.064;4.920;2024-02-28T01:29:56;22.30;;;16.48;;
42702;SDS011;28341;52.064;4.920;2024-02-28T01:32:00;19.98;;;16.23;;
42702;SDS011;28341;52.064;4.920;2024-02-28T01:34:05;21.77;;;16.85;;
42702;SDS011;28341;52.064;4.920;2024-02-28T01:36:07;20.80;;;16.88;;
42702;SDS011;28341;52.064;4.920;2024-02-28T01:38:11;23.65;;;16.33;;
42702;SDS011;28341;52.064;4.920;2024-02-28T01:40:18;21.90;;;16.25;;
42702;SDS011;28341;52.064;4.920;2024-02-28T01:42:23;21.52;;;15.50;;
42702;SDS011;28341;52.064;4.920;2024-02-28T01:44:27;21.23;;;16.42;;
42702;SDS011;28341;52.064;4.920;2024-02-28T01:46:32;22.63;;;16.75;;
42702;SDS011;28341;52.064;4.920;2024-02-28T01:48:36;21.85;;;17.33;;
42702;SDS011;28341;52.064;4.920;2024-02-28T01:50:41;22.65;;;17.67;;
42702;SDS011;28341;52.064;4.920;2024-02-28T01:52:46;19.38;;;16.88;;
42702;SDS011;28341;52.064;4.920;2024-02-28T01:54:50;21.88;;;17.23;;
42702;SDS011;28341;52.064;4.920;2024-02-28T01:56:57;20.88;;;16.15;;
42702;SDS011;28341;52.064;4.920;2024-02-28T01:59:02;21.50;;;17.35;;
42702;SDS011;28341;52.064;4.920;2024-02-28T02:01:07;23.33;;;17.48;;
42702;SDS011;28341;52.064;4.920;2024-02-28T02:03:12;27.42;;;17.42;;
42702;SDS011;28341;52.064;4.920;2024-02-28T02:05:16;24.05;;;17.70;;
42702;SDS011;28341;52.064;4.920;2024-02-28T02:07:21;22.20;;;16.63;;
42702;SDS011;28341;52.064;4.920;2024-02-28T02:09:23;17.95;;;16.13;;
42702;SDS011;28341;52.064;4.920;2024-02-28T02:11:28;24.08;;;18.10;;
42702;SDS011;28341;52.064;4.920;2024-02-28T02:13:35;20.00;;;16.70;;
42702;SDS011;28341;52.064;4.920;2024-02-28T02:15:50;23.48;;;17.35;;
42702;SDS011;28341;52.064;4.920;2024-02-28T02:17:54;22.48;;;17.88;;
42702;SDS011;28341;52.064;4.920;2024-02-28T02:19:59;23.30;;;17.75;;
42702;SDS011;28341;52.064;4.920;2024-02-28T02:22:04;23.35;;;17.30;;
42702;SDS011;28341;52.064;4.920;2024-02-28T02:24:09;23.00;;;18.23;;
42702;SDS011;28341;52.064;4.920;2024-02-28T02:26:14;27.30;;;17.00;;
42702;SDS011;28341;52.064;4.920;2024-02-28T02:28:18;24.20;;;17.55;;
42702;SDS011;28341;52.064;4.920;2024-02-28T02:30:20;22.70;;;18.17;;
42702;SDS011;28341;52.064;4.920;2024-02-28T02:32:24;23.75;;;18.48;;
42702;SDS011;28341;52.064;4.920;2024-02-28T02:34:26;22.88;;;17.70;;
42702;SDS011;28341;52.064;4.920;2024-02-28T02:36:31;23.92;;;17.40;;
42702;SDS011;28341;52.064;4.920;2024-02-28T02:38:32;22.17;;;17.02;;
42702;SDS011;28341;52.064;4.920;2024-02-28T02:40:39;21.38;;;17.75;;
42702;SDS011;28341;52.064;4.920;2024-02-28T02:42:44;21.05;;;16.48;;
42702;SDS011;28341;52.064;4.920;2024-02-28T02:44:48;22.27;;;17.00;;
42702;SDS011;28341;52.064;4.920;2024-02-28T02:46:53;21.02;;;16.30;;
42702;SDS011;28341;52.064;4.920;2024-02-28T02:48:57;24.70;;;16.80;;
42702;SDS011;28341;52.064;4.920;2024-02-28T02:51:02;22.55;;;17.00;;
42702;SDS011;28341;52.064;4.920;2024-02-28T02:53:07;23.23;;;16.95;;
42702;SDS011;28341;52.064;4.920;2024-02-28T02:55:13;20.40;;;16.15;;
42702;SDS011;28341;52.064;4.920;2024-02-28T02:57:18;20.58;;;16.35;;
42702;SDS011;28341;52.064;4.920;2024-02-28T02:59:23;21.90;;;16.48;;
42702;SDS011;28341;52.064;4.920;2024-02-28T03:01:27;19.25;;;16.35;;
42702;SDS011;28341;52.064;4.920;2024-02-28T03:03:33;20.25;;;15.60;;
42702;SDS011;28341;52.064;4.920;2024-02-28T03:05:38;18.13;;;15.82;;
42702;SDS011;28341;52.064;4.920;2024-02-28T03:07:42;18.25;;;15.75;;
42702;SDS011;28341;52.064;4.920;2024-02-28T03:09:47;21.35;;;16.70;;
42702;SDS011;28341;52.064;4.920;2024-02-28T03:11:51;23.30;;;16.65;;
42702;SDS011;28341;52.064;4.920;2024-02-28T03:13:58;21.55;;;16.02;;
42702;SDS011;28341;52.064;4.920;2024-02-28T03:16:03;21.92;;;17.20;;
42702;SDS011;28341;52.064;4.920;2024-02-28T03:18:08;23.02;;;16.27;;
42702;SDS011;28341;52.064;4.920;2024-02-28T03:20:12;23.30;;;16.45;;
42702;SDS011;28341;52.064;4.920;2024-02-28T03:22:17;23.50;;;18.02;;
42702;SDS011;28341;52.064;4.920;2024-02-28T03:24:21;18.55;;;16.55;;
42702;SDS011;28341;52.064;4.920;2024-02-28T03:26:26;22.88;;;17.58;;
42702;SDS011;28341;52.064;4.920;2024-02-28T03:28:31;21.38;;;17.33;;
42702;SDS011;28341;52.064;4.920;2024-02-28T03:30:38;20.52;;;17.10;;
42702;SDS011;28341;52.064;4.920;2024-02-28T03:32:42;25.55;;;18.95;;
42702;SDS011;28341;52.064;4.920;2024-02-28T03:34:47;24.50;;;19.60;;
42702;SDS011;28341;52.064;4.920;2024-02-28T03:36:52;24.80;;;19.13;;
42702;SDS011;28341;52.064;4.920;2024-02-28T03:38:56;26.48;;;19.45;;
42702;SDS011;28341;52.064;4.920;2024-02-28T03:41:01;28.20;;;20.58;;
42702;SDS011;28341;52.064;4.920;2024-02-28T03:43:06;26.23;;;20.65;;
42702;SDS011;28341;52.064;4.920;2024-02-28T03:45:13;27.63;;;21.25;;
42702;SDS011;28341;52.064;4.920;2024-02-28T03:47:20;26.67;;;21.08;;
42702;SDS011;28341;52.064;4.920;2024-02-28T03:49:25;32.72;;;23.05;;
42702;SDS011;28341;52.064;4.920;2024-02-28T03:51:26;29.98;;;22.17;;
42702;SDS011;28341;52.064;4.920;2024-02-28T03:53:31;33.90;;;23.30;;
42702;SDS011;28341;52.064;4.920;2024-02-28T03:55:35;27.55;;;22.05;;
42702;SDS011;28341;52.064;4.920;2024-02-28T03:57:38;28.00;;;22.67;;
42702;SDS011;28341;52.064;4.920;2024-02-28T03:59:44;32.60;;;22.45;;
42702;SDS011;28341;52.064;4.920;2024-02-28T04:01:48;33.05;;;22.98;;
42702;SDS011;28341;52.064;4.920;2024-02-28T04:03:56;30.23;;;23.13;;
42702;SDS011;28341;52.064;4.920;2024-02-28T04:06:00;33.20;;;24.98;;
42702;SDS011;28341;52.064;4.920;2024-02-28T04:08:05;32.08;;;23.90;;
42702;SDS011;28341;52.064;4.920;2024-02-28T04:10:10;30.05;;;23.33;;
42702;SDS011;28341;52.064;4.920;2024-02-28T04:12:15;33.58;;;24.00;;
42702;SDS011;28341;52.064;4.920;2024-02-28T04:14:20;30.25;;;23.10;;
42702;SDS011;28341;52.064;4.920;2024-02-28T04:16:24;31.55;;;24.17;;
42702;SDS011;28341;52.064;4.920;2024-02-28T04:18:29;34.80;;;24.67;;
42702;SDS011;28341;52.064;4.920;2024-02-28T04:20:36;32.20;;;23.30;;
42702;SDS011;28341;52.064;4.920;2024-02-28T04:22:41;30.52;;;23.40;;
42702;SDS011;28341;52.064;4.920;2024-02-28T04:24:43;34.92;;;25.45;;
42702;SDS011;28341;52.064;4.920;2024-02-28T04:26:47;31.35;;;23.88;;
42702;SDS011;28341;52.064;4.920;2024-02-28T04:28:49;31.10;;;23.63;;
42702;SDS011;28341;52.064;4.920;2024-02-28T04:30:53;34.33;;;24.08;;
42702;SDS011;28341;52.064;4.920;2024-02-28T04:32:58;33.70;;;24.23;;
42702;SDS011;28341;52.064;4.920;2024-02-28T04:35:03;32.20;;;23.45;;
42702;SDS011;28341;52.064;4.920;2024-02-28T04:37:10;33.22;;;24.88;;
42702;SDS011;28341;52.064;4.920;2024-02-28T04:39:15;31.05;;;23.60;;
42702;SDS011;28341;52.064;4.920;2024-02-28T04:41:16;33.55;;;24.00;;
42702;SDS011;28341;52.064;4.920;2024-02-28T04:43:21;33.67;;;23.83;;
42702;SDS011;28341;52.064;4.920;2024-02-28T04:45:25;36.78;;;25.55;;
42702;SDS011;28341;52.064;4.920;2024-02-28T04:47:30;29.23;;;23.35;;
42702;SDS011;28341;52.064;4.920;2024-02-28T04:49:36;32.17;;;23.25;;
42702;SDS011;28341;52.064;4.920;2024-02-28T04:51:41;38.95;;;23.50;;
42702;SDS011;28341;52.064;4.920;2024-02-28T04:53:48;30.52;;;22.20;;
42702;SDS011;28341;52.064;4.920;2024-02-28T04:55:52;33.35;;;22.23;;
42702;SDS011;28341;52.064;4.920;2024-02-28T04:57:57;32.67;;;22.02;;
42702;SDS011;28341;52.064;4.920;2024-02-28T05:00:01;32.15;;;23.17;;
42702;SDS011;28341;52.064;4.920;2024-02-28T05:02:08;31.52;;;22.33;;
42702;SDS011;28341;52.064;4.920;2024-02-28T05:04:12;33.97;;;22.25;;
42702;SDS011;28341;52.064;4.920;2024-02-28T05:06:17;30.55;;;22.88;;
42702;SDS011;28341;52.064;4.920;2024-02-28T05:08:21;34.78;;;23.27;;
42702;SDS011;28341;52.064;4.920;2024-02-28T05:10:25;32.25;;;22.92;;
42702;SDS011;28341;52.064;4.920;2024-02-28T05:12:30;34.78;;;23.45;;
42702;SDS011;28341;52.064;4.920;2024-02-28T05:14:32;31.77;;;23.25;;
42702;SDS011;28341;52.064;4.920;2024-02-28T05:16:36;35.55;;;23.88;;
42702;SDS011;28341;52.064;4.920;2024-02-28T05:18:41;34.50;;;24.33;;
42702;SDS011;28341;52.064;4.920;2024-02-28T05:20:45;34.08;;;24.65;;
42702;SDS011;28341;52.064;4.920;2024-02-28T05:22:49;29.85;;;23.90;;
42702;SDS011;28341;52.064;4.920;2024-02-28T05:24:54;33.03;;;24.70;;
42702;SDS011;28341;52.064;4.920;2024-02-28T05:27:01;28.38;;;23.80;;
42702;SDS011;28341;52.064;4.920;2024-02-28T05:29:06;32.83;;;23.35;;
42702;SDS011;28341;52.064;4.920;2024-02-28T05:31:20;30.38;;;24.52;;
42702;SDS011;28341;52.064;4.920;2024-02-28T05:33:25;36.33;;;25.00;;
42702;SDS011;28341;52.064;4.920;2024-02-28T05:35:30;32.92;;;24.25;;
42702;SDS011;28341;52.064;4.920;2024-02-28T05:37:32;34.38;;;25.77;;
42702;SDS011;28341;52.064;4.920;2024-02-28T05:39:36;33.13;;;25.50;;
42702;SDS011;28341;52.064;4.920;2024-02-28T05:41:40;37.30;;;25.98;;
42702;SDS011;28341;52.064;4.920;2024-02-28T05:43:48;33.47;;;25.90;;
42702;SDS011;28341;52.064;4.920;2024-02-28T05:45:52;37.88;;;26.70;;
42702;SDS011;28341;52.064;4.920;2024-02-28T05:47:57;36.17;;;26.25;;
42702;SDS011;28341;52.064;4.920;2024-02-28T05:50:02;35.75;;;26.13;;
42702;SDS011;28341;52.064;4.920;2024-02-28T05:52:06;32.63;;;26.42;;
42702;SDS011;28341;52.064;4.920;2024-02-28T05:54:11;35.63;;;26.60;;
42702;SDS011;28341;52.064;4.920;2024-02-28T05:56:16;34.63;;;26.65;;
42702;SDS011;28341;52.064;4.920;2024-02-28T05:58:21;38.55;;;26.15;;
42702;SDS011;28341;52.064;4.920;2024-02-28T06:00:28;34.75;;;26.05;;
42702;SDS011;28341;52.064;4.920;2024-02-28T06:02:33;33.65;;;26.35;;
42702;SDS011;28341;52.064;4.920;2024-02-28T06:04:37;36.15;;;26.83;;
42702;SDS011;28341;52.064;4.920;2024-02-28T06:06:41;29.95;;;26.23;;
42702;SDS011;28341;52.064;4.920;2024-02-28T06:08:46;37.63;;;26.05;;
42702;SDS011;28341;52.064;4.920;2024-02-28T06:10:48;32.43;;;25.27;;
42702;SDS011;28341;52.064;4.920;2024-02-28T06:12:53;35.65;;;27.20;;
42702;SDS011;28341;52.064;4.920;2024-02-28T06:14:57;33.70;;;28.02;;
42702;SDS011;28341;52.064;4.920;2024-02-28T06:17:04;38.65;;;28.10;;
42702;SDS011;28341;52.064;4.920;2024-02-28T06:19:09;40.38;;;27.42;;
42702;SDS011;28341;52.064;4.920;2024-02-28T06:21:13;33.50;;;26.52;;
42702;SDS011;28341;52.064;4.920;2024-02-28T06:23:18;33.42;;;25.38;;
42702;SDS011;28341;52.064;4.920;2024-02-28T06:25:20;34.13;;;26.38;;
42702;SDS011;28341;52.064;4.920;2024-02-28T06:27:25;36.20;;;27.73;;
42702;SDS011;28341;52.064;4.920;2024-02-28T06:29:29;32.97;;;27.00;;
42702;SDS011;28341;52.064;4.920;2024-02-28T06:31:31;34.13;;;25.80;;
42702;SDS011;28341;52.064;4.920;2024-02-28T06:33:38;40.78;;;27.30;;
42702;SDS011;28341;52.064;4.920;2024-02-28T06:35:42;38.35;;;28.00;;
42702;SDS011;28341;52.064;4.920;2024-02-28T06:37:47;49.70;;;34.80;;
42702;SDS011;28341;52.064;4.920;2024-02-28T06:39:50;41.85;;;32.75;;
42702;SDS011;28341;52.064;4.920;2024-02-28T06:41:55;41.10;;;28.42;;
42702;SDS011;28341;52.064;4.920;2024-02-28T06:43:59;37.53;;;26.13;;
42702;SDS011;28341;52.064;4.920;2024-02-28T06:46:01;40.40;;;33.22;;
42702;SDS011;28341;52.064;4.920;2024-02-28T06:48:06;42.17;;;33.90;;
42702;SDS011;28341;52.064;4.920;2024-02-28T06:50:14;43.63;;;31.90;;
42702;SDS011;28341;52.064;4.920;2024-02-28T06:52:18;34.25;;;26.52;;
42702;SDS011;28341;52.064;4.920;2024-02-28T06:54:22;34.17;;;27.50;;
42702;SDS011;28341;52.064;4.920;2024-02-28T06:56:27;33.42;;;27.63;;
42702;SDS011;28341;52.064;4.920;2024-02-28T06:58:31;32.65;;;26.25;;
42702;SDS011;28341;52.064;4.920;2024-02-28T07:00:36;32.80;;;26.33;;
42702;SDS011;28341;52.064;4.920;2024-02-28T07:02:40;33.50;;;26.77;;
42702;SDS011;28341;52.064;4.920;2024-02-28T07:04:45;34.97;;;27.42;;
42702;SDS011;28341;52.064;4.920;2024-02-28T07:06:49;33.40;;;27.25;;
42702;SDS011;28341;52.064;4.920;2024-02-28T07:08:53;36.15;;;27.52;;
42702;SDS011;28341;52.064;4.920;2024-02-28T07:10:58;34.63;;;27.23;;
42702;SDS011;28341;52.064;4.920;2024-02-28T07:13:03;33.67;;;26.95;;
42702;SDS011;28341;52.064;4.920;2024-02-28T07:15:05;35.28;;;26.23;;
42702;SDS011;28341;52.064;4.920;2024-02-28T07:17:10;33.70;;;27.27;;
42702;SDS011;28341;52.064;4.920;2024-02-28T07:19:12;37.67;;;27.90;;
42702;SDS011;28341;52.064;4.920;2024-02-28T07:21:16;32.55;;;27.63;;
42702;SDS011;28341;52.064;4.920;2024-02-28T07:23:23;39.78;;;28.42;;
42702;SDS011;28341;52.064;4.920;2024-02-28T07:25:28;75.72;;;49.28;;
42702;SDS011;28341;52.064;4.920;2024-02-28T07:27:32;46.47;;;33.67;;
42702;SDS011;28341;52.064;4.920;2024-02-28T07:29:37;44.70;;;31.08;;
42702;SDS011;28341;52.064;4.920;2024-02-28T07:31:41;35.85;;;28.58;;
42702;SDS011;28341;52.064;4.920;2024-02-28T07:33:46;34.60;;;27.75;;
42702;SDS011;28341;52.064;4.920;2024-02-28T07:35:51;31.95;;;28.40;;
42702;SDS011;28341;52.064;4.920;2024-02-28T07:38:01;36.58;;;28.13;;
42702;SDS011;28341;52.064;4.920;2024-02-28T07:40:08;35.65;;;27.20;;
42702;SDS011;28341;52.064;4.920;2024-02-28T07:42:13;35.33;;;27.80;;
42702;SDS011;28341;52.064;4.920;2024-02-28T07:44:18;40.60;;;28.50;;
42702;SDS011;28341;52.064;4.920;2024-02-28T07:46:19;37.35;;;28.98;;
42702;SDS011;28341;52.064;4.920;2024-02-28T07:48:23;34.60;;;27.38;;
42702;SDS011;28341;52.064;4.920;2024-02-28T07:50:27;36.42;;;26.73;;
42702;SDS011;28341;52.064;4.920;2024-02-28T07:52:29;43.50;;;29.17;;
42702;SDS011;28341;52.064;4.920;2024-02-28T07:54:35;33.03;;;27.85;;
42702;SDS011;28341;52.064;4.920;2024-02-28T07:56:42;34.38;;;27.58;;
42702;SDS011;28341;52.064;4.920;2024-02-28T07:58:46;38.33;;;27.38;;
42702;SDS011;28341;52.064;4.920;2024-02-28T08:00:51;34.13;;;28.65;;
42702;SDS011;28341;52.064;4.920;2024-02-28T08:02:55;38.40;;;28.00;;
42702;SDS011;28341;52.064;4.920;2024-02-28T08:05:02;38.58;;;28.27;;
42702;SDS011;28341;52.064;4.920;2024-02-28T08:07:07;40.78;;;28.52;;
42702;SDS011;28341;52.064;4.920;2024-02-28T08:09:12;35.70;;;28.23;;
42702;SDS011;28341;52.064;4.920;2024-02-28T08:11:16;35.72;;;27.35;;
42702;SDS011;28341;52.064;4.920;2024-02-28T08:13:22;37.80;;;27.30;;
42702;SDS011;28341;52.064;4.920;2024-02-28T08:15:28;34.95;;;27.90;;
42702;SDS011;28341;52.064;4.920;2024-02-28T08:17:32;35.75;;;26.13;;
42702;SDS011;28341;52.064;4.920;2024-02-28T08:19:37;34.15;;;25.92;;
42702;SDS011;28341;52.064;4.920;2024-02-28T08:21:41;37.20;;;26.73;;
42702;SDS011;28341;52.064;4.920;2024-02-28T08:23:45;33.10;;;25.70;;
42702;SDS011;28341;52.064;4.920;2024-02-28T08:25:49;35.75;;;25.63;;
42702;SDS011;28341;52.064;4.920;2024-02-28T08:27:51;37.53;;;25.95;;
42702;SDS011;28341;52.064;4.920;2024-02-28T08:29:57;31.88;;;24.33;;
42702;SDS011;28341;52.064;4.920;2024-02-28T08:32:01;35.83;;;24.08;;
42702;SDS011;28341;52.064;4.920;2024-02-28T08:34:06;28.27;;;23.40;;
42702;SDS011;28341;52.064;4.920;2024-02-28T08:36:10;29.48;;;24.02;;
42702;SDS011;28341;52.064;4.920;2024-02-28T08:38:15;31.08;;;23.48;;
42702;SDS011;28341;52.064;4.920;2024-02-28T08:40:19;31.48;;;22.95;;
42702;SDS011;28341;52.064;4.920;2024-02-28T08:42:27;31.63;;;23.33;;
42702;SDS011;28341;52.064;4.920;2024-02-28T08:44:34;33.50;;;22.27;;
42702;SDS011;28341;52.064;4.920;2024-02-28T08:46:41;28.50;;;22.73;;
42702;SDS011;28341;52.064;4.920;2024-02-28T08:48:42;27.23;;;21.25;;
42702;SDS011;28341;52.064;4.920;2024-02-28T08:50:46;25.63;;;20.25;;
42702;SDS011;28341;52.064;4.920;2024-02-28T08:52:51;31.55;;;21.88;;
42702;SDS011;28341;52.064;4.920;2024-02-28T08:54:55;28.48;;;21.55;;
42702;SDS011;28341;52.064;4.920;2024-02-28T08:56:56;29.40;;;21.58;;
42702;SDS011;28341;52.064;4.920;2024-02-28T08:59:00;27.30;;;21.02;;
42702;SDS011;28341;52.064;4.920;2024-02-28T09:01:02;30.88;;;22.00;;
42702;SDS011;28341;52.064;4.920;2024-02-28T09:03:09;28.95;;;21.75;;
42702;SDS011;28341;52.064;4.920;2024-02-28T09:05:13;27.92;;;21.40;;
42702;SDS011;28341;52.064;4.920;2024-02-28T09:07:18;29.77;;;21.83;;
42702;SDS011;28341;52.064;4.920;2024-02-28T09:09:22;26.30;;;20.98;;
42702;SDS011;28341;52.064;4.920;2024-02-28T09:11:28;29.10;;;21.92;;
42702;SDS011;28341;52.064;4.920;2024-02-28T09:13:32;27.15;;;21.90;;
42702;SDS011;28341;52.064;4.920;2024-02-28T09:15:35;22.63;;;19.50;;
42702;SDS011;28341;52.064;4.920;2024-02-28T09:17:39;23.77;;;18.98;;
42702;SDS011;28341;52.064;4.920;2024-02-28T09:19:43;23.80;;;18.92;;
42702;SDS011;28341;52.064;4.920;2024-02-28T09:21:47;27.10;;;19.85;;
42702;SDS011;28341;52.064;4.920;2024-02-28T09:23:49;26.30;;;18.90;;
42702;SDS011;28341;52.064;4.920;2024-02-28T09:25:53;27.35;;;19.88;;
42702;SDS011;28341;52.064;4.920;2024-02-28T09:27:58;25.90;;;19.00;;
42702;SDS011;28341;52.064;4.920;2024-02-28T09:30:03;25.30;;;19.52;;
42702;SDS011;28341;52.064;4.920;2024-02-28T09:32:09;27.25;;;20.35;;
42702;SDS011;28341;52.064;4.920;2024-02-28T09:34:15;30.95;;;20.67;;
42702;SDS011;28341;52.064;4.920;2024-02-28T09:36:21;30.77;;;19.73;;
42702;SDS011;28341;52.064;4.920;2024-02-28T09:38:25;26.23;;;19.02;;
42702;SDS011;28341;52.064;4.920;2024-02-28T09:40:30;27.02;;;20.38;;
42702;SDS011;28341;52.064;4.920;2024-02-28T09:42:34;27.95;;;19.73;;
42702;SDS011;28341;52.064;4.920;2024-02-28T09:44:38;30.52;;;20.15;;
42702;SDS011;28341;52.064;4.920;2024-02-28T09:46:44;32.70;;;20.60;;
42702;SDS011;28341;52.064;4.920;2024-02-28T09:48:45;29.05;;;19.73;;
42702;SDS011;28341;52.064;4.920;2024-02-28T09:50:51;29.98;;;21.48;;
42702;SDS011;28341;52.064;4.920;2024-02-28T09:52:58;32.17;;;21.05;;
42702;SDS011;28341;52.064;4.920;2024-02-28T09:55:03;31.55;;;22.20;;
42702;SDS011;28341;52.064;4.920;2024-02-28T09:57:09;28.58;;;21.15;;
42702;SDS011;28341;52.064;4.920;2024-02-28T09:59:15;30.92;;;21.33;;
42702;SDS011;28341;52.064;4.920;2024-02-28T10:01:19;33.00;;;20.23;;
42702;SDS011;28341;52.064;4.920;2024-02-28T10:03:25;28.23;;;20.38;;
42702;SDS011;28341;52.064;4.920;2024-02-28T10:05:30;31.63;;;19.77;;
42702;SDS011;28341;52.064;4.920;2024-02-28T10:07:36;28.08;;;20.17;;
42702;SDS011;28341;52.064;4.920;2024-02-28T10:09:43;26.70;;;19.85;;
42702;SDS011;28341;52.064;4.920;2024-02-28T10:11:48;27.20;;;19.55;;
42702;SDS011;28341;52.064;4.920;2024-02-28T10:13:52;26.58;;;19.08;;
42702;SDS011;28341;52.064;4.920;2024-02-28T10:15:57;28.88;;;21.45;;
42702;SDS011;28341;52.064;4.920;2024-02-28T10:18:04;56.28;;;39.40;;
42702;SDS011;28341;52.064;4.920;2024-02-28T10:20:09;30.15;;;21.15;;
42702;SDS011;28341;52.064;4.920;2024-02-28T10:22:15;24.90;;;19.13;;
42702;SDS011;28341;52.064;4.920;2024-02-28T10:24:20;24.95;;;18.23;;
42702;SDS011;28341;52.064;4.920;2024-02-28T10:26:30;26.15;;;18.73;;
42702;SDS011;28341;52.064;4.920;2024-02-28T10:28:38;23.70;;;18.75;;
42702;SDS011;28341;52.064;4.920;2024-02-28T10:30:41;26.13;;;18.38;;
42702;SDS011;28341;52.064;4.920;2024-02-28T10:32:49;27.65;;;19.02;;
42702;SDS011;28341;52.064;4.920;2024-02-28T10:34:53;23.77;;;19.75;;
42702;SDS011;28341;52.064;4.920;2024-02-28T10:36:58;26.67;;;19.77;;
42702;SDS011;28341;52.064;4.920;2024-02-28T10:39:03;25.73;;;19.65;;
42702;SDS011;28341;52.064;4.920;2024-02-28T10:41:08;27.63;;;20.23;;
42702;SDS011;28341;52.064;4.920;2024-02-28T10:43:16;28.60;;;20.35;;
42702;SDS011;28341;52.064;4.920;2024-02-28T10:45:20;28.63;;;20.15;;
42702;SDS011;28341;52.064;4.920;2024-02-28T10:47:29;27.52;;;21.02;;
42702;SDS011;28341;52.064;4.920;2024-02-28T10:49:34;25.40;;;21.15;;
42702;SDS011;28341;52.064;4.920;2024-02-28T10:51:39;28.35;;;20.63;;
42702;SDS011;28341;52.064;4.920;2024-02-28T10:53:43;28.75;;;20.23;;
42702;SDS011;28341;52.064;4.920;2024-02-28T10:55:51;27.60;;;21.52;;
42702;SDS011;28341;52.064;4.920;2024-02-28T10:57:58;29.45;;;22.88;;
42702;SDS011;28341;52.064;4.920;2024-02-28T11:00:11;30.27;;;23.33;;
42702;SDS011;28341;52.064;4.920;2024-02-28T11:02:17;27.42;;;22.05;;
42702;SDS011;28341;52.064;4.920;2024-02-28T11:04:22;30.80;;;22.90;;
42702;SDS011;28341;52.064;4.920;2024-02-28T11:06:26;28.38;;;22.48;;
42702;SDS011;28341;52.064;4.920;2024-02-28T11:08:29;25.08;;;22.10;;
42702;SDS011;28341;52.064;4.920;2024-02-28T11:10:35;27.13;;;21.65;;
42702;SDS011;28341;52.064;4.920;2024-02-28T11:12:54;29.27;;;22.48;;
42702;SDS011;28341;52.064;4.920;2024-02-28T11:14:59;28.80;;;22.40;;
42702;SDS011;28341;52.064;4.920;2024-02-28T11:17:09;25.25;;;21.40;;
42702;SDS011;28341;52.064;4.920;2024-02-28T11:19:20;28.40;;;21.50;;
42702;SDS011;28341;52.064;4.920;2024-02-28T11:21:25;27.15;;;22.25;;
42702;SDS011;28341;52.064;4.920;2024-02-28T11:23:35;27.83;;;21.85;;
42702;SDS011;28341;52.064;4.920;2024-02-28T11:25:40;28.52;;;22.23;;
42702;SDS011;28341;52.064;4.920;2024-02-28T11:27:47;26.02;;;21.08;;
42702;SDS011;28341;52.064;4.920;2024-02-28T11:29:52;25.88;;;20.48;;
42702;SDS011;28341;52.064;4.920;2024-02-28T11:31:57;28.10;;;20.25;;
42702;SDS011;28341;52.064;4.920;2024-02-28T11:34:04;26.63;;;19.77;;
42702;SDS011;28341;52.064;4.920;2024-02-28T11:36:08;25.58;;;19.25;;
42702;SDS011;28341;52.064;4.920;2024-02-28T11:38:16;26.88;;;19.25;;
42702;SDS011;28341;52.064;4.920;2024-02-28T11:40:20;22.42;;;18.50;;
42702;SDS011;28341;52.064;4.920;2024-02-28T11:42:25;26.92;;;20.25;;
42702;SDS011;28341;52.064;4.920;2024-02-28T11:44:29;25.02;;;19.48;;
42702;SDS011;28341;52.064;4.920;2024-02-28T11:46:34;29.08;;;19.83;;
42702;SDS011;28341;52.064;4.920;2024-02-28T11:48:39;23.75;;;19.40;;
42702;SDS011;28341;52.064;4.920;2024-02-28T11:50:46;23.83;;;17.40;;
42702;SDS011;28341;52.064;4.920;2024-02-28T11:52:50;24.20;;;19.02;;
42702;SDS011;28341;52.064;4.920;2024-02-28T11:54:55;21.83;;;18.38;;
42702;SDS011;28341;52.064;4.920;2024-02-28T11:56:59;24.23;;;19.30;;
42702;SDS011;28341;52.064;4.920;2024-02-28T11:59:04;23.80;;;18.35;;
42702;SDS011;28341;52.064;4.920;2024-02-28T12:01:08;25.17;;;19.15;;
42702;SDS011;28341;52.064;4.920;2024-02-28T12:03:13;24.92;;;18.52;;
42702;SDS011;28341;52.064;4.920;2024-02-28T12:05:15;22.63;;;18.07;;
42702;SDS011;28341;52.064;4.920;2024-02-28T12:07:21;21.02;;;18.80;;
42702;SDS011;28341;52.064;4.920;2024-02-28T12:09:26;22.13;;;17.75;;